首页
METAR-TAF:

METAR-TAF

机场 :

约翰·卡尔·芒罗哈密尔顿国际机场

哈密尔顿, 安大略省, 加拿大

纬度: 43-10N, 经度: 079-56W, 海拔: 237米

当前天气观测

该预报发布于1小时和1分钟前的18:00 UTC
风速19节,风向西转西南,有时为27节阵风
温度 4°C
湿度 87%
气压 1011 hPa
能見度: 24.1公里
少量云层高于1200英尺
散云层高于1900英尺
多云层高于3100英尺
阴天层高于25000英尺

METAR: CYHM 181800Z 24019G27KT 15SM FEW012 SCT019 BKN031 OVC250 04/02 A2984 RMK SC2SC1SC4CI1 SLP113

时间: 14:01 (19:01 UTC)

预报

该预报发布于45分钟前的18:16 UTC
预报有效从18日的 18点(UTC)到 19日的 18点(UTC)
风速20节,风向西转西南,有时为35节阵风
能見度: 10公里
阴天层高于1500英尺
短暂存在
从 18日的 18点(UTC)到 18日的 21点(UTC)
多云层高于2500英尺
从 18日的 2100点(UTC)
风速18节,风向西,有时为30节阵风
能見度: 10公里
阴天层高于2000英尺
短暂存在
从 18日的 21点(UTC)到 19日的 10点(UTC)
阴天层高于2500英尺
成为
从 19日的 00点(UTC)到 19日的 02点(UTC)
风速12节,风向西,有时为25节阵风
从 19日的 1000点(UTC)
风速12节,风向西转西北
能見度: 10公里
多云层高于2000英尺
从 19日的 1600点(UTC)
风速12节,风向西
能見度: 10公里
多云层高于3000英尺

TAF: CYHM 181816Z 1818/1918 25020G35KT P6SM OVC015 TEMPO 1818/1821 BKN025 FM182100 26018G30KT P6SM OVC020 TEMPO 1821/1910 OVC025 BECMG 1900/1902 27012G25KT FM191000 29012KT P6SM BKN020 FM191600 28012KT P6SM BKN030 RMK NXT FCST BY 190000Z

超过4000个机场的气象观测和天气预报(METAR&TAF报告)。

可查询的气象台以黄色和红色小点在地图上表示。

将鼠标移到小点上方,可查看气象台名称。

然后点击查看天气观测和预报。

如需切换地图:点击带黑十字的绿色按钮放大地图;点击带横线的绿色按钮缩小地图;或者点击绿色箭头查看邻近地区的地图。


METAR-TAF: